Airports Germany Karlsruhe Baden-Baden Airport

Karlsruhe Baden-Baden Airport (EDSB / FKB)

Facts about Karlsruhe Baden-Baden Airport

Name Karlsruhe Baden-Baden Airport
City Karlsruhe/Baden-Baden
Country Germany
ICAO code EDSB
IATA code FKB
Elevation 124.3584 meters (408 feet)

Weather

METAR

Metar data retrieved Friday, 19 July 2024 at 23:25 UTC (17 minutes ago)

EDSB 192250Z VRB02KT CAVOK 21/19 Q1015

Live traffic

Navigraph Charts (account required)